TAF and METAR

Decoding for American and Canadian METARs and TAFs is not fully implemented.

Could not understand the following METAR

KFAR 192053Z AUTO 26011KT 10SM FEW060 14/03 A2960 RMK AO2 SLP029 T01440028 55006

TAF for Hector International Airport

KFAR 191728Z 1918/2018 26011G14KT P6SM SKC FM200100 VRB03KT P6SM SCT200
Report created 19. okt 19:28

between 19. okt 20:00 - 20. okt 20:00

wind 11 knots from W (260°) with gusts up to 14 knots
Hector International Airport in United States of America at 277m

Latest 5 airports